createdAt,value
2022-11-13T00:01:18.976Z,9.57
2022-11-13T00:03:47.378Z,12.95
2022-11-13T00:06:18.021Z,17.10
2022-11-13T00:08:45.966Z,16.10
2022-11-13T00:11:17.435Z,17.93
2022-11-13T00:13:45.533Z,14.55
2022-11-13T00:16:15.621Z,17.52
2022-11-13T00:18:43.817Z,14.52
2022-11-13T00:21:15.843Z,19.52
2022-11-13T00:23:45.660Z,20.73
2022-11-13T00:26:15.599Z,10.88
2022-11-13T00:28:43.655Z,9.35
2022-11-13T00:31:13.530Z,8.27
2022-11-13T00:36:31.637Z,8.40
2022-11-13T00:39:02.329Z,7.03
2022-11-13T00:41:30.135Z,7.03
2022-11-13T00:43:57.821Z,5.60
2022-11-13T00:46:25.697Z,5.18
2022-11-13T00:48:53.396Z,5.00
2022-11-13T00:51:21.065Z,4.93
2022-11-13T00:53:49.677Z,4.25
2022-11-13T00:56:18.777Z,4.47
2022-11-13T00:58:46.639Z,5.20
2022-11-13T01:01:17.558Z,9.73
2022-11-13T01:03:46.109Z,14.13
2022-11-13T01:06:16.033Z,18.85
2022-11-13T01:08:43.986Z,15.43
2022-11-13T01:11:13.933Z,15.95
2022-11-13T01:13:45.286Z,25.20
2022-11-13T01:16:14.417Z,25.13
2022-11-13T01:18:43.374Z,25.95
2022-11-13T01:21:13.890Z,25.67
2022-11-13T01:23:42.327Z,24.85
2022-11-13T01:26:13.330Z,31.47
2022-11-13T01:28:43.807Z,26.77
2022-11-13T01:31:13.374Z,37.60
2022-11-13T01:33:41.184Z,26.58
2022-11-13T01:36:12.096Z,24.27
2022-11-13T01:38:40.177Z,21.20
2022-11-13T01:41:09.038Z,21.45
2022-11-13T01:43:38.910Z,19.08
2022-11-13T01:46:17.155Z,13.90
2022-11-13T01:48:49.361Z,14.23
2022-11-13T01:51:23.578Z,10.43
2022-11-13T01:53:53.838Z,13.48
2022-11-13T01:56:22.147Z,11.15
2022-11-13T01:58:55.353Z,9.15
2022-11-13T02:01:24.586Z,11.85
2022-11-13T02:03:52.492Z,12.23
2022-11-13T02:06:21.855Z,11.20
2022-11-13T02:08:52.187Z,11.50
2022-11-13T02:11:21.247Z,11.65
2022-11-13T02:13:50.026Z,10.18
2022-11-13T02:16:18.915Z,11.50
2022-11-13T02:18:48.266Z,9.40
2022-11-13T02:21:28.649Z,9.88
2022-11-13T02:24:04.954Z,9.30
2022-11-13T02:26:34.914Z,7.97
2022-11-13T02:29:02.851Z,7.70
2022-11-13T02:31:30.542Z,10.05
2022-11-13T02:33:58.659Z,8.68
2022-11-13T02:36:27.202Z,10.75
2022-11-13T02:38:56.673Z,8.02
2022-11-13T02:41:24.687Z,5.83
2022-11-13T02:43:54.032Z,6.93
2022-11-13T02:46:21.706Z,7.40
2022-11-13T02:48:49.398Z,4.85
2022-11-13T02:51:17.311Z,6.40
2022-11-13T02:53:45.424Z,5.63
2022-11-13T02:56:13.066Z,4.47
2022-11-13T02:58:41.221Z,6.50
2022-11-13T03:01:10.876Z,5.60
2022-11-13T03:03:56.961Z,6.18
2022-11-13T03:06:25.415Z,7.03
2022-11-13T03:08:53.281Z,5.72
2022-11-13T03:11:21.042Z,6.03
2022-11-13T03:13:48.723Z,5.53
2022-11-13T03:16:18.616Z,6.05
2022-11-13T03:18:46.500Z,6.23
2022-11-13T03:21:15.724Z,6.20
2022-11-13T03:23:45.637Z,6.97
2022-11-13T03:26:18.561Z,7.05
2022-11-13T03:28:46.388Z,8.65
2022-11-13T03:31:14.838Z,7.43
2022-11-13T03:33:44.371Z,7.88
2022-11-13T03:36:12.173Z,7.63
2022-11-13T03:38:40.297Z,6.85
2022-11-13T03:41:08.237Z,6.88
2022-11-13T03:43:36.172Z,6.10
2022-11-13T03:46:03.811Z,7.18
2022-11-13T03:48:31.805Z,7.15
2022-11-13T03:51:01.998Z,5.25
2022-11-13T03:53:30.172Z,5.03
2022-11-13T03:55:58.095Z,3.80
2022-11-13T03:58:26.199Z,3.30
2022-11-13T04:00:55.872Z,2.97
2022-11-13T04:03:24.055Z,3.25
2022-11-13T04:05:52.569Z,2.80
2022-11-13T04:08:21.628Z,2.97
2022-11-13T04:10:49.302Z,2.90
2022-11-13T04:13:17.296Z,3.17
2022-11-13T04:15:45.167Z,3.17
2022-11-13T04:18:13.320Z,3.50
2022-11-13T04:20:41.133Z,3.30
2022-11-13T04:23:12.692Z,3.17
2022-11-13T04:25:44.040Z,2.70
2022-11-13T04:28:12.282Z,3.53
2022-11-13T04:30:40.480Z,3.15
2022-11-13T04:33:08.726Z,2.80
2022-11-13T04:35:37.752Z,2.60
2022-11-13T04:38:05.515Z,2.70
2022-11-13T04:40:39.471Z,2.75
2022-11-13T04:43:07.600Z,3.03
2022-11-13T04:45:36.535Z,2.67
2022-11-13T04:48:04.751Z,2.42
2022-11-13T04:50:32.490Z,2.25
2022-11-13T04:53:00.441Z,3.03
2022-11-13T04:55:28.335Z,2.72
2022-11-13T04:57:58.903Z,2.93
2022-11-13T05:00:30.094Z,2.28
2022-11-13T05:03:01.418Z,2.88
2022-11-13T05:05:29.993Z,2.30
2022-11-13T05:07:57.912Z,3.00
2022-11-13T05:10:25.782Z,3.00
2022-11-13T05:12:59.591Z,3.25
2022-11-13T05:15:28.937Z,3.30
2022-11-13T05:17:56.644Z,3.50
2022-11-13T05:20:24.382Z,3.55
2022-11-13T05:22:52.460Z,3.10
2022-11-13T05:25:20.186Z,2.78
2022-11-13T05:27:48.425Z,2.72
2022-11-13T05:30:17.077Z,2.90
2022-11-13T05:32:46.068Z,3.65
2022-11-13T05:35:14.388Z,3.00
2022-11-13T05:37:42.323Z,3.05
2022-11-13T05:40:11.683Z,3.28
2022-11-13T05:42:39.578Z,3.17
2022-11-13T05:45:08.145Z,2.90
2022-11-13T05:47:37.520Z,2.80
2022-11-13T05:50:07.878Z,2.15
2022-11-13T05:52:35.626Z,2.10
2022-11-13T05:55:03.465Z,2.00
2022-11-13T05:57:31.367Z,2.35
2022-11-13T06:00:00.198Z,2.07
2022-11-13T06:02:28.101Z,2.10
2022-11-13T06:04:56.708Z,2.40
2022-11-13T06:07:26.070Z,2.50
2022-11-13T06:09:53.730Z,2.60
2022-11-13T06:12:21.464Z,2.50
2022-11-13T06:14:49.370Z,2.58
2022-11-13T06:17:17.081Z,2.42
2022-11-13T06:19:45.259Z,2.08
2022-11-13T06:22:13.279Z,2.97
2022-11-13T06:24:42.654Z,2.97
2022-11-13T06:27:10.640Z,2.60
2022-11-13T06:29:38.387Z,3.58
2022-11-13T06:32:06.670Z,3.30
2022-11-13T06:34:34.573Z,2.90
2022-11-13T06:37:03.287Z,3.33
2022-11-13T06:39:31.177Z,3.30
2022-11-13T06:42:00.490Z,3.50
2022-11-13T06:44:28.634Z,3.10
2022-11-13T06:46:56.423Z,3.70
2022-11-13T06:49:24.175Z,3.73
2022-11-13T06:51:52.586Z,3.45
2022-11-13T06:54:20.592Z,3.42
2022-11-13T06:56:48.508Z,4.95
2022-11-13T06:59:17.682Z,5.60
2022-11-13T07:01:45.667Z,4.67
2022-11-13T07:04:13.780Z,4.95
2022-11-13T07:06:41.883Z,7.43
2022-11-13T07:09:09.778Z,8.93
2022-11-13T07:11:37.566Z,6.70
2022-11-13T07:14:06.233Z,6.23
2022-11-13T07:17:04.154Z,6.35
2022-11-13T07:19:23.268Z,6.25
2022-11-13T07:21:51.034Z,6.65
2022-11-13T07:24:18.773Z,6.63
2022-11-13T07:26:46.665Z,6.50
2022-11-13T07:29:15.797Z,7.05
2022-11-13T07:31:45.842Z,7.72
2022-11-13T07:34:14.825Z,8.82
2022-11-13T07:36:42.593Z,9.05
2022-11-13T07:39:10.635Z,8.27
2022-11-13T07:41:38.839Z,6.72
2022-11-13T07:44:09.392Z,6.00
2022-11-13T07:46:38.614Z,5.90
2022-11-13T07:49:07.713Z,5.25
2022-11-13T07:51:35.435Z,4.83
2022-11-13T07:54:03.672Z,4.47
2022-11-13T07:56:31.428Z,5.65
2022-11-13T07:59:02.558Z,6.28
2022-11-13T08:01:30.288Z,7.07
2022-11-13T08:03:58.271Z,7.73
2022-11-13T08:06:28.118Z,8.48
2022-11-13T08:08:55.856Z,7.45
2022-11-13T08:11:23.711Z,7.40
2022-11-13T08:13:51.399Z,7.03
2022-11-13T08:16:19.296Z,7.30
2022-11-13T08:18:47.038Z,9.32
2022-11-13T08:21:15.259Z,9.63
2022-11-13T08:23:44.503Z,7.70
2022-11-13T08:26:12.352Z,7.40
2022-11-13T08:28:40.267Z,7.80
2022-11-13T08:31:12.050Z,8.00
2022-11-13T08:33:40.309Z,7.00
2022-11-13T08:36:08.935Z,7.20
2022-11-13T08:38:36.929Z,5.97
2022-11-13T08:41:09.600Z,5.37
2022-11-13T08:43:37.702Z,4.90
2022-11-13T08:46:06.026Z,4.80
2022-11-13T08:48:34.007Z,4.45
2022-11-13T08:51:01.697Z,5.88
2022-11-13T08:53:29.800Z,7.47
2022-11-13T08:56:01.357Z,5.47
2022-11-13T08:58:30.737Z,5.00
2022-11-13T09:01:01.864Z,4.55
2022-11-13T09:03:29.833Z,4.25
2022-11-13T09:06:00.722Z,4.20
2022-11-13T09:08:31.152Z,4.30
2022-11-13T09:11:03.235Z,4.03
2022-11-13T09:13:32.689Z,3.88
2022-11-13T09:16:00.499Z,3.97
2022-11-13T09:18:29.113Z,4.77
2022-11-13T09:21:02.060Z,4.40
2022-11-13T09:23:30.838Z,4.03
2022-11-13T09:26:02.660Z,4.22
2022-11-13T09:28:32.215Z,4.00
2022-11-13T09:30:59.960Z,3.93
2022-11-13T09:33:27.874Z,4.18
2022-11-13T09:35:55.572Z,4.20
2022-11-13T09:38:24.025Z,3.83
2022-11-13T09:40:55.685Z,3.85
2022-11-13T09:43:32.434Z,3.60
2022-11-13T09:46:06.209Z,4.00
2022-11-13T09:48:38.311Z,4.20
2022-11-13T09:51:12.487Z,4.50
2022-11-13T09:53:41.727Z,4.30
2022-11-13T09:56:23.075Z,4.90
2022-11-13T09:58:59.169Z,4.47
2022-11-13T10:01:37.297Z,5.03
2022-11-13T10:04:14.506Z,4.85
2022-11-13T10:06:54.682Z,4.72
2022-11-13T10:09:30.585Z,4.90
2022-11-13T10:12:03.118Z,5.68
2022-11-13T10:14:35.710Z,5.78
2022-11-13T10:17:10.940Z,5.53
2022-11-13T10:19:44.280Z,5.55
2022-11-13T10:22:34.536Z,4.90
2022-11-13T10:25:11.890Z,6.10
2022-11-13T10:27:40.014Z,5.22
2022-11-13T10:30:14.930Z,5.50
2022-11-13T10:32:44.982Z,5.38
2022-11-13T10:35:27.451Z,5.70
2022-11-13T10:38:04.870Z,5.32
2022-11-13T10:40:38.151Z,6.20
2022-11-13T10:43:08.090Z,5.15
2022-11-13T10:45:35.771Z,5.10
2022-11-13T10:48:05.473Z,5.17
2022-11-13T10:50:34.142Z,4.97
2022-11-13T10:53:01.826Z,5.03
2022-11-13T10:55:39.238Z,4.72
2022-11-13T10:58:15.251Z,5.38
2022-11-13T11:00:47.335Z,6.13
2022-11-13T11:03:19.354Z,6.10
2022-11-13T11:05:54.565Z,5.60
2022-11-13T11:08:27.367Z,6.15
2022-11-13T11:11:16.346Z,5.45
2022-11-13T11:13:44.496Z,5.17
2022-11-13T11:16:18.544Z,5.82
2022-11-13T11:18:54.060Z,5.63
2022-11-13T11:21:24.279Z,6.15
2022-11-13T11:23:59.940Z,5.43
2022-11-13T11:26:32.558Z,5.80
2022-11-13T11:29:10.028Z,5.70
2022-11-13T11:31:43.047Z,6.40
2022-11-13T11:34:18.596Z,5.90
2022-11-13T11:36:53.911Z,5.60
2022-11-13T11:39:30.074Z,5.60
2022-11-13T11:42:06.911Z,6.55
2022-11-13T11:45:05.264Z,5.28
2022-11-13T11:47:34.500Z,5.95
2022-11-13T11:50:05.645Z,6.63
2022-11-13T11:52:53.095Z,5.77
2022-11-13T11:55:47.768Z,7.25
2022-11-13T11:58:26.680Z,7.28
2022-11-13T12:01:02.129Z,7.05
2022-11-13T12:04:08.603Z,7.03
2022-11-13T12:06:52.263Z,6.60
2022-11-13T12:09:25.896Z,6.47
2022-11-13T12:12:04.112Z,6.63
2022-11-13T12:14:45.639Z,5.45
2022-11-13T12:17:28.470Z,6.28
2022-11-13T12:20:07.840Z,5.47
2022-11-13T12:22:46.796Z,5.63
2022-11-13T12:25:24.786Z,5.78
2022-11-13T12:27:57.587Z,5.53
2022-11-13T12:30:33.718Z,5.25
2022-11-13T12:33:13.876Z,5.03
2022-11-13T12:35:42.340Z,4.70
2022-11-13T12:38:20.086Z,4.97
2022-11-13T12:40:56.706Z,6.97
2022-11-13T12:43:49.603Z,7.82
2022-11-13T12:46:17.852Z,8.73
2022-11-13T12:48:47.224Z,6.85
2022-11-13T12:51:16.497Z,5.65
2022-11-13T12:53:48.865Z,6.93
2022-11-13T12:56:31.033Z,5.05
2022-11-13T12:59:29.027Z,4.63
2022-11-13T13:01:52.718Z,4.50
2022-11-13T13:04:39.085Z,4.60
2022-11-13T13:07:20.370Z,4.40
2022-11-13T13:10:00.334Z,4.60
2022-11-13T13:12:40.951Z,5.00
2022-11-13T13:15:31.275Z,4.78
2022-11-13T13:18:11.573Z,5.00
2022-11-13T13:20:40.960Z,5.18
2022-11-13T13:23:13.110Z,5.05
2022-11-13T13:25:42.254Z,4.53
2022-11-13T13:28:24.229Z,4.95
2022-11-13T13:31:02.140Z,5.28
2022-11-13T13:33:38.739Z,5.28
2022-11-13T13:36:20.584Z,5.50
2022-11-13T13:38:55.154Z,5.27
2022-11-13T13:41:47.158Z,6.93
2022-11-13T13:44:32.073Z,6.60
2022-11-13T13:47:00.094Z,5.95
2022-11-13T13:49:29.474Z,6.40
2022-11-13T13:51:59.016Z,8.33
2022-11-13T13:54:30.293Z,6.82
2022-11-13T13:56:59.735Z,7.05
2022-11-13T13:59:31.749Z,5.70
2022-11-13T14:02:01.783Z,6.63
2022-11-13T14:04:30.681Z,6.23
2022-11-13T14:06:59.862Z,6.30
2022-11-13T14:09:29.307Z,6.47
2022-11-13T14:12:09.316Z,5.80
2022-11-13T14:14:40.562Z,6.00
2022-11-13T14:17:11.377Z,6.90
2022-11-13T14:19:39.657Z,7.20
2022-11-13T14:22:11.462Z,7.22
2022-11-13T14:24:47.547Z,6.63
2022-11-13T14:27:21.448Z,6.85
2022-11-13T14:29:50.896Z,6.67
2022-11-13T14:32:22.377Z,6.90
2022-11-13T14:34:52.637Z,7.45
2022-11-13T14:37:25.512Z,7.40
2022-11-13T14:39:54.226Z,6.90
2022-11-13T14:42:28.311Z,7.03
2022-11-13T14:45:13.838Z,6.55
2022-11-13T14:47:42.960Z,6.38
2022-11-13T14:50:21.546Z,7.15
2022-11-13T14:52:57.809Z,6.57
2022-11-13T14:55:28.237Z,6.67
2022-11-13T14:57:57.249Z,7.68
2022-11-13T15:00:31.649Z,6.88
2022-11-13T15:03:00.132Z,6.30
2022-11-13T15:05:28.196Z,7.05
2022-11-13T15:07:57.054Z,6.30
2022-11-13T15:10:27.175Z,7.13
2022-11-13T15:12:54.859Z,7.65
2022-11-13T15:15:28.102Z,7.47
2022-11-13T15:17:56.502Z,7.60
2022-11-13T15:20:26.880Z,6.83
2022-11-13T15:22:55.690Z,7.22
2022-11-13T15:25:24.832Z,7.38
2022-11-13T15:27:52.655Z,7.25
2022-11-13T15:30:20.839Z,7.95
2022-11-13T15:32:54.334Z,8.07
2022-11-13T15:35:22.616Z,7.93
2022-11-13T15:37:50.353Z,8.68
2022-11-13T15:40:20.236Z,8.90
2022-11-13T15:42:47.902Z,10.07
2022-11-13T15:45:17.864Z,8.03
2022-11-13T15:47:45.823Z,8.63
2022-11-13T15:50:16.073Z,9.60
2022-11-13T15:52:47.136Z,8.90
2022-11-13T15:55:22.573Z,8.32
2022-11-13T16:01:31.442Z,8.52
2022-11-13T16:04:02.289Z,10.30
2022-11-13T16:06:31.594Z,9.73
2022-11-13T16:08:59.262Z,9.45
2022-11-13T16:11:28.157Z,8.60
2022-11-13T16:13:56.014Z,8.95
2022-11-13T16:16:26.215Z,8.65
2022-11-13T16:18:59.867Z,8.25
2022-11-13T16:21:28.531Z,10.00
2022-11-13T16:23:57.539Z,11.70
2022-11-13T16:26:27.149Z,11.00
2022-11-13T16:29:25.871Z,11.57
2022-11-13T16:31:43.913Z,10.43
2022-11-13T16:34:50.260Z,11.77
2022-11-13T16:37:21.255Z,9.67
2022-11-13T16:39:50.829Z,10.63
2022-11-13T16:42:18.527Z,11.50
2022-11-13T16:44:46.665Z,11.95
2022-11-13T16:47:22.396Z,13.20
2022-11-13T16:49:50.800Z,12.63
2022-11-13T16:52:19.405Z,12.57
2022-11-13T16:54:47.334Z,11.10
2022-11-13T16:57:17.400Z,10.85
2022-11-13T16:59:45.594Z,11.57
2022-11-13T17:02:15.657Z,10.97
2022-11-13T17:04:43.883Z,10.70
2022-11-13T17:07:13.477Z,11.27
2022-11-13T17:09:42.358Z,12.52
2022-11-13T17:12:11.398Z,12.60
2022-11-13T17:14:41.238Z,11.83
2022-11-13T17:17:13.430Z,14.40
2022-11-13T17:19:46.948Z,12.32
2022-11-13T17:22:18.145Z,12.60
2022-11-13T17:24:49.925Z,13.52
2022-11-13T17:27:18.033Z,14.37
2022-11-13T17:29:51.886Z,14.15
2022-11-13T17:32:19.968Z,17.48
2022-11-13T17:34:47.770Z,14.43
2022-11-13T17:37:18.806Z,13.38
2022-11-13T17:39:48.650Z,14.83
2022-11-13T17:42:16.551Z,13.68
2022-11-13T17:44:46.962Z,15.73
2022-11-13T17:47:16.108Z,14.35
2022-11-13T17:49:43.777Z,13.55
2022-11-13T17:52:11.414Z,14.60
2022-11-13T17:54:39.493Z,15.88
2022-11-13T18:00:48.050Z,14.10
2022-11-13T18:03:17.495Z,14.65
2022-11-13T18:05:45.784Z,13.30
2022-11-13T18:08:14.424Z,12.48
2022-11-13T18:10:43.535Z,12.70
2022-11-13T18:13:11.354Z,11.40
2022-11-13T18:15:40.142Z,12.20
2022-11-13T18:18:09.674Z,12.27
2022-11-13T18:20:41.661Z,13.43
2022-11-13T18:23:10.753Z,11.30
2022-11-13T18:25:39.903Z,11.05
2022-11-13T18:28:08.216Z,11.35
2022-11-13T18:30:39.179Z,12.23
2022-11-13T18:33:07.152Z,11.07
2022-11-13T18:35:35.719Z,12.27
2022-11-13T18:38:05.245Z,13.30
2022-11-13T18:40:33.675Z,12.02
2022-11-13T18:43:01.290Z,13.77
2022-11-13T18:45:29.108Z,12.40
2022-11-13T18:47:56.964Z,11.60
2022-11-13T18:50:24.669Z,11.32
2022-11-13T18:52:52.422Z,12.68
2022-11-13T18:55:21.460Z,11.70
2022-11-13T18:57:49.331Z,12.07
2022-11-13T19:00:18.074Z,12.02
2022-11-13T19:02:45.952Z,11.25
2022-11-13T19:05:14.117Z,14.93
2022-11-13T19:07:43.714Z,12.37
2022-11-13T19:10:11.345Z,13.02
2022-11-13T19:12:40.789Z,12.35
2022-11-13T19:15:09.725Z,12.32
2022-11-13T19:17:37.360Z,11.43
2022-11-13T19:20:06.567Z,13.07
2022-11-13T19:22:34.371Z,13.63
2022-11-13T19:25:03.369Z,11.68
2022-11-13T19:27:31.316Z,11.77
2022-11-13T19:30:00.767Z,12.90
2022-11-13T19:32:28.931Z,12.00
2022-11-13T19:34:56.692Z,12.32
2022-11-13T19:37:24.661Z,14.15
2022-11-13T19:39:53.850Z,14.00
2022-11-13T19:42:21.480Z,14.20
2022-11-13T19:44:49.311Z,14.30
2022-11-13T19:47:18.690Z,14.32
2022-11-13T19:49:48.296Z,13.38
2022-11-13T19:52:15.920Z,13.80
2022-11-13T19:54:45.192Z,14.60
2022-11-13T19:57:13.036Z,16.00
2022-11-13T19:59:42.123Z,16.92
2022-11-13T20:02:10.377Z,17.13
2022-11-13T20:04:39.310Z,18.02
2022-11-13T20:07:07.072Z,18.50
2022-11-13T20:09:34.945Z,16.37
2022-11-13T20:12:02.567Z,22.58
2022-11-13T20:14:33.163Z,22.38
2022-11-13T20:17:04.962Z,17.67
2022-11-13T20:19:32.614Z,17.00
2022-11-13T20:22:01.638Z,20.30
2022-11-13T20:24:29.510Z,19.08
2022-11-13T20:26:57.148Z,17.02
2022-11-13T20:29:24.790Z,14.90
2022-11-13T20:31:53.541Z,14.60
2022-11-13T20:34:21.226Z,12.77
2022-11-13T20:36:48.811Z,11.82
2022-11-13T20:39:18.576Z,11.77
2022-11-13T20:41:46.549Z,12.63
2022-11-13T20:44:15.957Z,12.63
2022-11-13T20:46:43.790Z,11.57
2022-11-13T20:49:11.440Z,12.68
2022-11-13T20:51:39.046Z,12.13
2022-11-13T20:54:06.950Z,11.75
2022-11-13T20:56:35.938Z,12.15
2022-11-13T20:59:05.413Z,12.20
2022-11-13T21:01:35.145Z,12.07
2022-11-13T21:04:03.080Z,11.57
2022-11-13T21:06:30.861Z,12.10
2022-11-13T21:08:58.544Z,12.80
2022-11-13T21:11:26.655Z,12.73
2022-11-13T21:13:57.640Z,13.20
2022-11-13T21:16:27.603Z,12.98
2022-11-13T21:18:56.805Z,12.32
2022-11-13T21:21:26.589Z,11.52
2022-11-13T21:23:56.972Z,12.60
2022-11-13T21:26:25.339Z,20.30
2022-11-13T21:28:57.136Z,28.58
2022-11-13T21:31:24.814Z,27.83
2022-11-13T21:33:52.940Z,27.00
2022-11-13T21:36:22.097Z,17.40
2022-11-13T21:38:54.800Z,19.20
2022-11-13T21:41:25.212Z,23.38
2022-11-13T21:43:58.001Z,26.30
2022-11-13T21:46:28.765Z,26.42
2022-11-13T21:48:57.651Z,24.43
2022-11-13T21:51:25.540Z,22.30
2022-11-13T21:53:53.384Z,22.70
2022-11-13T21:56:21.486Z,23.52
2022-11-13T21:58:49.103Z,33.30
2022-11-13T22:01:16.767Z,32.70
2022-11-13T22:03:45.868Z,24.90
2022-11-13T22:06:19.563Z,26.63
2022-11-13T22:08:49.037Z,24.67
2022-11-13T22:11:16.636Z,18.85
2022-11-13T22:13:44.654Z,15.93
2022-11-13T22:16:13.772Z,14.38
2022-11-13T22:18:41.668Z,14.68
2022-11-13T22:21:13.010Z,13.73
2022-11-13T22:23:41.429Z,13.60
2022-11-13T22:26:10.613Z,12.80
2022-11-13T22:28:40.107Z,12.15
2022-11-13T22:31:08.261Z,11.75
2022-11-13T22:33:37.540Z,12.02
2022-11-13T22:36:07.512Z,14.48
2022-11-13T22:38:37.136Z,13.23
2022-11-13T22:41:06.370Z,11.65
2022-11-13T22:43:35.677Z,11.80
2022-11-13T22:46:05.235Z,11.75
2022-11-13T22:48:33.239Z,12.18
2022-11-13T22:51:05.759Z,11.93
2022-11-13T22:53:33.736Z,14.07
2022-11-13T22:56:04.336Z,13.35
2022-11-13T22:58:32.156Z,12.07
2022-11-13T23:01:05.696Z,11.80
2022-11-13T23:03:33.767Z,13.03
2022-11-13T23:06:02.757Z,13.40
2022-11-13T23:08:31.180Z,12.77
2022-11-13T23:10:59.672Z,13.27
2022-11-13T23:13:28.695Z,13.68
2022-11-13T23:15:56.394Z,13.97
2022-11-13T23:18:24.178Z,13.50
2022-11-13T23:20:51.867Z,13.73
2022-11-13T23:23:19.480Z,13.05
2022-11-13T23:25:47.334Z,12.05
2022-11-13T23:28:15.066Z,12.57
2022-11-13T23:30:44.263Z,13.00
2022-11-13T23:33:11.879Z,13.00
2022-11-13T23:35:39.712Z,12.65
2022-11-13T23:38:07.401Z,12.27
2022-11-13T23:40:35.913Z,12.13
2022-11-13T23:43:03.994Z,12.57
2022-11-13T23:45:31.953Z,12.90
2022-11-13T23:48:01.668Z,12.52
2022-11-13T23:50:29.518Z,12.85
2022-11-13T23:52:57.311Z,12.40
2022-11-13T23:55:25.133Z,11.85
2022-11-13T23:57:57.542Z,11.70
